Time;durP1;ratioP1;P1;durP2;ratioP2;P2;SDS_P1;SDS_P2;PMS_P1;PMS_P2;Temp;Humidity;BMP_temperature;BMP_pressure;BME280_temperature;BME280_humidity;BME280_pressure;Samples;Min_cycle;Max_cycle;Signal;HPM_P1;HPM_P2
2023/10/03 00:04:07;;;;;;;11.70;5.55;;;;;;;;;;10271016;28;20055;-74
2023/10/03 00:09:11;;;;;;;9.73;5.13;;;;;;;;;;10267190;28;20047;-74
2023/10/03 00:14:16;;;;;;;11.02;5.95;;;;;;;;;;10273278;28;20424;-74
2023/10/03 00:19:19;;;;;;;11.60;5.63;;;;;;;;;;10277030;28;20042;-75
2023/10/03 00:24:22;;;;;;;11.80;5.93;;;;;;;;;;10282851;28;20043;-75
2023/10/03 00:29:29;;;;;;;12.63;6.05;;;;;;;;;;10277567;28;20049;-75
2023/10/03 00:34:36;;;;;;;14.80;6.63;;;;;;;;;;10303779;28;20039;-74
2023/10/03 00:39:41;;;;;;;11.57;5.43;;;;;;;;;;10281449;28;20047;-74
2023/10/03 00:44:45;;;;;;;13.45;6.07;;;;;;;;;;10288212;28;20073;-75
2023/10/03 00:49:49;;;;;;;11.45;5.40;;;;;;;;;;10278932;28;20047;-75
2023/10/03 00:54:52;;;;;;;10.65;5.45;;;;;;;;;;10276831;28;20424;-74
2023/10/03 00:59:59;;;;;;;10.90;5.75;;;;;;;;;;10299557;28;20548;-75
2023/10/03 01:05:03;;;;;;;10.68;5.47;;;;;;;;;;10279549;28;20464;-74
2023/10/03 01:10:08;;;;;;;11.07;5.43;;;;;;;;;;10277269;28;20049;-75
2023/10/03 01:15:16;;;;;;;9.25;5.53;;;;;;;;;;10273826;28;20046;-75
2023/10/03 01:20:28;;;;;;;12.35;5.10;;;;;;;;;;10286415;28;20409;-74
2023/10/03 01:25:34;;;;;;;12.48;5.47;;;;;;;;;;10287438;28;20637;-75
2023/10/03 01:30:40;;;;;;;13.27;6.75;;;;;;;;;;10285497;28;20127;-75
2023/10/03 01:35:45;;;;;;;16.02;7.50;;;;;;;;;;10284158;28;20118;-74
2023/10/03 01:40:53;;;;;;;12.20;6.32;;;;;;;;;;10324549;22;20053;-77
2023/10/03 01:45:56;;;;;;;12.18;6.15;;;;;;;;;;10324786;28;20049;-76
2023/10/03 01:51:01;;;;;;;12.20;6.15;;;;;;;;;;10319802;28;20042;-77
2023/10/03 01:56:07;;;;;;;13.25;5.70;;;;;;;;;;10325768;28;20042;-76
2023/10/03 02:01:10;;;;;;;11.83;5.97;;;;;;;;;;10321236;28;20602;-76
2023/10/03 02:06:13;;;;;;;11.13;5.60;;;;;;;;;;10326651;28;20046;-76
2023/10/03 02:11:19;;;;;;;13.73;6.55;;;;;;;;;;10321982;28;20050;-77
2023/10/03 02:16:23;;;;;;;14.43;6.93;;;;;;;;;;10322475;28;20050;-77
2023/10/03 02:21:26;;;;;;;13.07;6.78;;;;;;;;;;10323526;28;20046;-77
2023/10/03 02:26:32;;;;;;;11.57;6.22;;;;;;;;;;10325982;28;20812;-76
2023/10/03 02:31:37;;;;;;;15.43;7.40;;;;;;;;;;10318622;28;20030;-76
2023/10/03 02:36:41;;;;;;;15.60;7.93;;;;;;;;;;10325653;28;20538;-76
2023/10/03 02:41:46;;;;;;;17.90;8.88;;;;;;;;;;10325079;28;20125;-76
2023/10/03 02:46:50;;;;;;;15.82;8.07;;;;;;;;;;10321181;28;20049;-76
2023/10/03 02:51:53;;;;;;;14.23;7.18;;;;;;;;;;10325411;28;20041;-77
2023/10/03 02:56:59;;;;;;;19.08;8.55;;;;;;;;;;10325557;28;20038;-77
2023/10/03 03:02:03;;;;;;;15.87;7.97;;;;;;;;;;10321929;28;20046;-76
2023/10/03 03:07:07;;;;;;;15.40;7.75;;;;;;;;;;10325214;28;20066;-76
2023/10/03 03:12:13;;;;;;;19.70;8.77;;;;;;;;;;10323147;28;20061;-76
2023/10/03 03:17:18;;;;;;;16.67;8.02;;;;;;;;;;10323183;28;20057;-76
2023/10/03 03:22:23;;;;;;;13.10;7.18;;;;;;;;;;10324788;28;20093;-77
2023/10/03 03:27:39;;;;;;;17.98;8.82;;;;;;;;;;10323597;28;20042;-77
2023/10/03 03:32:43;;;;;;;15.73;7.75;;;;;;;;;;10321067;28;20089;-76
2023/10/03 03:37:48;;;;;;;15.75;7.95;;;;;;;;;;10324957;28;20050;-76
2023/10/03 03:42:52;;;;;;;16.65;7.97;;;;;;;;;;10324477;28;20049;-77
2023/10/03 03:47:56;;;;;;;12.25;6.32;;;;;;;;;;10323429;28;20038;-76
2023/10/03 03:52:59;;;;;;;11.40;5.97;;;;;;;;;;10324464;28;20096;-76
2023/10/03 03:58:06;;;;;;;12.23;5.78;;;;;;;;;;10331673;28;20100;-76
2023/10/03 04:03:13;;;;;;;14.23;6.28;;;;;;;;;;10332782;28;20074;-77
2023/10/03 04:08:18;;;;;;;14.32;5.65;;;;;;;;;;10330683;28;20050;-77
2023/10/03 04:13:23;;;;;;;10.20;5.72;;;;;;;;;;10332243;28;20090;-76
2023/10/03 04:18:27;;;;;;;12.90;7.18;;;;;;;;;;10329049;28;20765;-77
2023/10/03 04:23:30;;;;;;;13.38;7.15;;;;;;;;;;10330064;28;20054;-77
2023/10/03 04:28:35;;;;;;;9.75;5.57;;;;;;;;;;10331324;28;20610;-76
2023/10/03 04:33:38;;;;;;;12.32;6.28;;;;;;;;;;10330326;28;20034;-76
2023/10/03 04:38:42;;;;;;;11.50;5.70;;;;;;;;;;10331376;28;20046;-76
2023/10/03 04:43:49;;;;;;;9.68;5.28;;;;;;;;;;10330571;28;20499;-76
2023/10/03 04:48:53;;;;;;;9.88;4.78;;;;;;;;;;10328749;28;20089;-77
2023/10/03 04:53:57;;;;;;;7.78;4.07;;;;;;;;;;10327102;28;20085;-77
2023/10/03 04:59:03;;;;;;;7.10;4.00;;;;;;;;;;10321269;28;20052;-76
2023/10/03 05:04:07;;;;;;;9.63;4.53;;;;;;;;;;10329034;28;20550;-76
2023/10/03 05:09:11;;;;;;;8.30;4.30;;;;;;;;;;10329191;28;20526;-76
2023/10/03 05:14:17;;;;;;;9.15;4.38;;;;;;;;;;10330016;28;20558;-76
2023/10/03 05:19:20;;;;;;;8.77;4.90;;;;;;;;;;10328613;28;20042;-76
2023/10/03 05:24:24;;;;;;;10.02;4.45;;;;;;;;;;10329354;28;20046;-76
2023/10/03 05:29:29;;;;;;;10.80;4.78;;;;;;;;;;10328772;28;20050;-76
2023/10/03 05:34:33;;;;;;;6.93;3.78;;;;;;;;;;10324647;28;20046;-76
2023/10/03 05:39:36;;;;;;;8.05;4.70;;;;;;;;;;10328611;28;20050;-76
2023/10/03 05:44:41;;;;;;;7.50;3.72;;;;;;;;;;10321819;28;20054;-76
2023/10/03 05:49:44;;;;;;;7.35;4.15;;;;;;;;;;10326922;28;20565;-76
2023/10/03 05:54:47;;;;;;;8.45;4.63;;;;;;;;;;10328842;28;20042;-76
2023/10/03 05:59:52;;;;;;;8.30;4.28;;;;;;;;;;10327983;28;20085;-76
2023/10/03 06:04:56;;;;;;;7.32;4.32;;;;;;;;;;10325976;28;20050;-76
2023/10/03 06:09:59;;;;;;;9.80;5.10;;;;;;;;;;10328070;28;20042;-77
2023/10/03 06:15:05;;;;;;;8.60;4.88;;;;;;;;;;10323608;28;20049;-76
2023/10/03 06:20:13;;;;;;;;;;;;;;;;;;10327346;28;20049;-76
2023/10/03 06:25:16;;;;;;;8.13;4.57;;;;;;;;;;10305951;28;19964;-77
2023/10/03 06:30:21;;;;;;;8.77;5.03;;;;;;;;;;10308072;28;20046;-77
2023/10/03 06:35:25;;;;;;;10.30;4.80;;;;;;;;;;10322965;28;20043;-76
2023/10/03 06:40:29;;;;;;;8.55;4.85;;;;;;;;;;10306941;28;20039;-77
2023/10/03 06:45:33;;;;;;;10.02;5.53;;;;;;;;;;10318099;28;20034;-78
2023/10/03 06:50:37;;;;;;;7.38;4.50;;;;;;;;;;10308970;28;20046;-77
2023/10/03 06:55:41;;;;;;;8.38;4.50;;;;;;;;;;10323923;28;20042;-76
2023/10/03 07:00:46;;;;;;;7.95;4.47;;;;;;;;;;10325568;28;20070;-76
2023/10/03 07:05:49;;;;;;;9.80;5.28;;;;;;;;;;10300544;28;20038;-77
2023/10/03 07:10:53;;;;;;;9.43;4.90;;;;;;;;;;10320871;28;20038;-77
2023/10/03 07:16:01;;;;;;;8.63;5.40;;;;;;;;;;10317441;28;20074;-76
2023/10/03 07:21:04;;;;;;;10.45;5.43;;;;;;;;;;10325422;28;20053;-76
2023/10/03 07:26:08;;;;;;;10.35;5.28;;;;;;;;;;10320120;28;20400;-76
2023/10/03 07:31:13;;;;;;;10.35;5.38;;;;;;;;;;10301515;28;20500;-76
2023/10/03 07:36:17;;;;;;;9.55;4.90;;;;;;;;;;10310074;28;20559;-76
2023/10/03 08:05:53;;;;;;;8.52;5.00;;;;;;;;;;10084610;22;20050;-85
2023/10/03 08:10:58;;;;;;;;;;;;;;;;;;10274729;28;20141;-85
2023/10/03 08:16:02;;;;;;;9.75;5.35;;;;;;;;;;10221181;28;20313;-86
2023/10/03 08:21:08;;;;;;;8.30;4.93;;;;;;;;;;10240292;28;20501;-88
2023/10/03 08:26:13;;;;;;;8.00;4.97;;;;;;;;;;10226486;28;20075;-87
2023/10/03 08:31:17;;;;;;;9.50;5.40;;;;;;;;;;10235551;28;20051;-88
2023/10/03 08:36:21;;;;;;;11.73;5.35;;;;;;;;;;10258248;28;20506;-87
2023/10/03 08:41:33;;;;;;;7.75;4.47;;;;;;;;;;10259252;28;20057;-88
2023/10/03 08:46:43;;;;;;;8.35;4.90;;;;;;;;;;10259599;28;20112;-87
2023/10/03 08:51:48;;;;;;;7.53;4.65;;;;;;;;;;10264502;28;20043;-87
2023/10/03 08:56:59;;;;;;;10.48;5.32;;;;;;;;;;10281418;28;20125;-87
2023/10/03 09:02:09;;;;;;;10.65;5.03;;;;;;;;;;10280767;28;20093;-87
2023/10/03 09:07:12;;;;;;;9.40;5.13;;;;;;;;;;10264261;28;20053;-87
2023/10/03 09:12:20;;;;;;;11.25;5.45;;;;;;;;;;10280974;28;20066;-90
2023/10/03 09:17:25;;;;;;;8.38;4.40;;;;;;;;;;10265314;28;20047;-87
2023/10/03 09:22:31;;;;;;;7.80;4.68;;;;;;;;;;10262230;28;20325;-88
2023/10/03 09:27:35;;;;;;;9.73;4.97;;;;;;;;;;10264478;28;20109;-88
2023/10/03 09:32:39;;;;;;;8.30;4.35;;;;;;;;;;10262701;28;20525;-87
2023/10/03 09:37:48;;;;;;;11.43;4.50;;;;;;;;;;10276207;28;20059;-88
2023/10/03 09:42:54;;;;;;;8.77;4.70;;;;;;;;;;10274500;28;20525;-90
2023/10/03 09:48:05;;;;;;;8.55;4.25;;;;;;;;;;10282966;28;20611;-89
2023/10/03 09:53:15;;;;;;;6.53;3.75;;;;;;;;;;10262697;28;20057;-87
2023/10/03 09:58:24;;;;;;;7.70;3.72;;;;;;;;;;10262479;28;20047;-90
2023/10/03 10:03:33;;;;;;;6.43;4.00;;;;;;;;;;10262656;28;20097;-87
2023/10/03 10:08:46;;;;;;;5.72;3.47;;;;;;;;;;10264537;28;20077;-86
2023/10/03 10:14:08;;;;;;;7.82;4.03;;;;;;;;;;10262443;28;20498;-87
2023/10/03 10:19:18;;;;;;;7.53;3.95;;;;;;;;;;10262283;28;20513;-86
2023/10/03 10:24:40;;;;;;;5.22;3.00;;;;;;;;;;10264817;28;20268;-86
2023/10/03 10:29:58;;;;;;;7.53;3.35;;;;;;;;;;10259635;28;20257;-87
2023/10/03 10:35:41;;;;;;;5.20;3.05;;;;;;;;;;10260712;28;20377;-86
2023/10/03 10:41:18;;;;;;;6.28;3.38;;;;;;;;;;10251042;28;20452;-89
2023/10/03 10:46:38;;;;;;;7.63;3.53;;;;;;;;;;10274276;28;20050;-88
2023/10/03 10:51:57;;;;;;;5.70;3.30;;;;;;;;;;10260468;28;20572;-89
2023/10/03 10:57:00;;;;;;;4.32;2.75;;;;;;;;;;10253861;28;20082;-87
2023/10/03 11:02:06;;;;;;;5.45;3.15;;;;;;;;;;10278230;28;20042;-87
2023/10/03 11:07:11;;;;;;;6.85;4.05;;;;;;;;;;10260039;28;20067;-88
2023/10/03 11:12:23;;;;;;;6.07;2.97;;;;;;;;;;10256251;28;20134;-86
2023/10/03 11:17:27;;;;;;;6.95;3.38;;;;;;;;;;10274839;28;20042;-88
2023/10/03 11:22:32;;;;;;;6.45;3.50;;;;;;;;;;10276112;28;20050;-85
2023/10/03 11:27:36;;;;;;;6.53;3.20;;;;;;;;;;10263702;28;20121;-88
2023/10/03 11:32:40;;;;;;;5.50;3.35;;;;;;;;;;10282829;28;20046;-89
2023/10/03 11:37:46;;;;;;;6.65;3.38;;;;;;;;;;10278596;28;20051;-86
2023/10/03 11:42:55;;;;;;;8.10;3.47;;;;;;;;;;10256619;28;20043;-85
2023/10/03 11:48:00;;;;;;;5.43;3.42;;;;;;;;;;10256841;28;20411;-87
2023/10/03 11:53:07;;;;;;;5.20;3.22;;;;;;;;;;10255488;28;20081;-86
2023/10/03 11:58:12;;;;;;;7.88;2.92;;;;;;;;;;10258821;28;20522;-87
2023/10/03 12:03:15;;;;;;;5.85;2.90;;;;;;;;;;10273897;28;20525;-86
2023/10/03 12:08:22;;;;;;;5.03;2.20;;;;;;;;;;10275040;28;20062;-87
2023/10/03 12:13:25;;;;;;;4.90;2.85;;;;;;;;;;10259251;28;20112;-87
2023/10/03 12:18:28;;;;;;;3.78;2.90;;;;;;;;;;10262254;28;20518;-87
2023/10/03 12:23:34;;;;;;;4.57;2.70;;;;;;;;;;10262913;28;20102;-86
2023/10/03 12:28:38;;;;;;;5.93;3.28;;;;;;;;;;10262374;28;20065;-86
2023/10/03 12:33:41;;;;;;;3.38;2.25;;;;;;;;;;10268271;28;20042;-86
2023/10/03 12:38:47;;;;;;;7.13;2.90;;;;;;;;;;10283951;28;20047;-89
2023/10/03 12:43:50;;;;;;;3.83;2.22;;;;;;;;;;10266920;28;20042;-89
2023/10/03 12:48:54;;;;;;;5.32;2.65;;;;;;;;;;10263821;28;20043;-89
2023/10/03 12:53:59;;;;;;;2.72;1.90;;;;;;;;;;10275786;28;20074;-90
2023/10/03 12:59:03;;;;;;;5.00;1.80;;;;;;;;;;10263726;28;20540;-89
2023/10/03 13:04:07;;;;;;;3.17;1.15;;;;;;;;;;10265010;28;20050;-88
2023/10/03 13:09:13;;;;;;;2.95;1.40;;;;;;;;;;10260997;28;20462;-88
2023/10/03 13:14:17;;;;;;;2.40;1.50;;;;;;;;;;10285621;28;20046;-90
2023/10/03 13:19:20;;;;;;;2.88;1.52;;;;;;;;;;10264213;28;20446;-89
2023/10/03 13:24:26;;;;;;;1.63;1.15;;;;;;;;;;10263354;28;20074;-88
2023/10/03 13:29:29;;;;;;;1.20;0.67;;;;;;;;;;10262665;28;20047;-88
2023/10/03 13:34:33;;;;;;;1.63;1.23;;;;;;;;;;10264629;28;20126;-89
2023/10/03 13:39:39;;;;;;;3.13;1.50;;;;;;;;;;10262675;28;20046;-88
2023/10/03 13:44:43;;;;;;;3.25;1.15;;;;;;;;;;10262743;28;20047;-89
2023/10/03 13:49:49;;;;;;;1.33;1.05;;;;;;;;;;10263960;28;20387;-91
2023/10/03 13:54:59;;;;;;;2.85;0.90;;;;;;;;;;10263201;28;20129;-89
2023/10/03 14:00:11;;;;;;;1.27;0.70;;;;;;;;;;10276143;28;20113;-91
2023/10/03 14:05:16;;;;;;;2.58;1.42;;;;;;;;;;10274500;28;20050;-88
2023/10/03 14:10:22;;;;;;;1.75;1.00;;;;;;;;;;10280584;28;20533;-88
2023/10/03 14:15:29;;;;;;;2.75;1.40;;;;;;;;;;10271398;28;20240;-88
2023/10/03 14:20:33;;;;;;;2.70;1.15;;;;;;;;;;10270930;28;20054;-89
2023/10/03 14:25:40;;;;;;;3.45;1.35;;;;;;;;;;10260495;28;20043;-89
2023/10/03 14:30:44;;;;;;;1.52;0.85;;;;;;;;;;10260915;28;20047;-87
2023/10/03 14:35:51;;;;;;;0.95;0.75;;;;;;;;;;10261907;28;20114;-88
2023/10/03 14:40:57;;;;;;;1.60;0.88;;;;;;;;;;10277162;28;20748;-88
2023/10/03 14:46:01;;;;;;;1.67;0.93;;;;;;;;;;10277652;28;20050;-87
2023/10/03 14:51:05;;;;;;;1.15;0.80;;;;;;;;;;10260858;28;20047;-87
2023/10/03 14:56:10;;;;;;;1.95;0.90;;;;;;;;;;10260213;28;20059;-88
2023/10/03 15:01:13;;;;;;;2.30;1.05;;;;;;;;;;10261202;28;20467;-88
2023/10/03 15:06:17;;;;;;;3.10;1.17;;;;;;;;;;10277193;28;20046;-87
2023/10/03 15:11:22;;;;;;;1.50;0.93;;;;;;;;;;10264440;28;20050;-87
2023/10/03 15:16:25;;;;;;;2.00;1.30;;;;;;;;;;10259541;28;20047;-87
2023/10/03 15:21:30;;;;;;;3.60;2.20;;;;;;;;;;10276568;28;20065;-88
2023/10/03 15:26:35;;;;;;;3.05;1.60;;;;;;;;;;10271757;28;20550;-86
2023/10/03 15:31:40;;;;;;;3.13;1.80;;;;;;;;;;10277726;28;20101;-87
2023/10/03 15:36:46;;;;;;;3.23;1.70;;;;;;;;;;10263407;28;20074;-87
2023/10/03 15:41:53;;;;;;;2.92;1.65;;;;;;;;;;10250746;28;20055;-87
2023/10/03 15:46:56;;;;;;;3.63;1.83;;;;;;;;;;10275586;28;20042;-86
2023/10/03 15:52:02;;;;;;;4.05;1.98;;;;;;;;;;10267006;28;20507;-86
2023/10/03 15:57:11;;;;;;;3.57;2.00;;;;;;;;;;10272480;28;20055;-87
2023/10/03 16:02:14;;;;;;;2.67;1.88;;;;;;;;;;10268463;28;20117;-86
2023/10/03 16:07:19;;;;;;;2.67;1.52;;;;;;;;;;10293428;28;20133;-86
2023/10/03 16:12:24;;;;;;;1.90;1.23;;;;;;;;;;10270416;28;20498;-86
2023/10/03 16:17:27;;;;;;;2.42;1.45;;;;;;;;;;10269528;28;20050;-87
2023/10/03 16:22:31;;;;;;;2.70;1.33;;;;;;;;;;10265131;28;20141;-86
2023/10/03 16:27:37;;;;;;;2.33;1.23;;;;;;;;;;10270349;28;20066;-86
2023/10/03 16:32:40;;;;;;;4.00;0.98;;;;;;;;;;10276152;28;20113;-86
2023/10/03 16:37:44;;;;;;;2.63;1.15;;;;;;;;;;10273000;28;20498;-87
2023/10/03 16:42:49;;;;;;;1.50;1.08;;;;;;;;;;10273012;28;20046;-86
2023/10/03 16:47:52;;;;;;;2.30;1.42;;;;;;;;;;10272641;28;20577;-86
2023/10/03 16:52:56;;;;;;;2.22;0.93;;;;;;;;;;10268066;28;20046;-87
2023/10/03 16:58:01;;;;;;;1.90;1.15;;;;;;;;;;10270549;28;20450;-86
2023/10/03 17:03:09;;;;;;;2.75;1.27;;;;;;;;;;10264833;28;20038;-86
2023/10/03 17:08:13;;;;;;;2.85;1.20;;;;;;;;;;10264263;28;20564;-86
2023/10/03 17:13:17;;;;;;;1.65;1.00;;;;;;;;;;10263609;28;20051;-86
2023/10/03 17:18:21;;;;;;;2.60;1.08;;;;;;;;;;10263332;28;20074;-87
2023/10/03 17:23:25;;;;;;;2.97;0.88;;;;;;;;;;10287428;28;20062;-86
2023/10/03 17:28:31;;;;;;;1.35;0.90;;;;;;;;;;10279601;28;20051;-88
2023/10/03 17:33:34;;;;;;;2.08;1.10;;;;;;;;;;10263222;28;20046;-87
2023/10/03 17:38:38;;;;;;;2.67;1.02;;;;;;;;;;10264213;28;20049;-87
2023/10/03 17:43:42;;;;;;;6.97;3.75;;;;;;;;;;10267378;28;20102;-87
2023/10/03 17:48:47;;;;;;;3.97;2.22;;;;;;;;;;10278818;28;20053;-87
2023/10/03 17:53:51;;;;;;;2.75;1.33;;;;;;;;;;10262081;28;20046;-88
2023/10/03 17:58:55;;;;;;;2.10;0.95;;;;;;;;;;10279425;28;20581;-87
2023/10/03 18:04:01;;;;;;;1.20;0.80;;;;;;;;;;10261886;28;20051;-87
2023/10/03 18:09:06;;;;;;;2.35;1.35;;;;;;;;;;10269277;28;20043;-87
2023/10/03 18:14:11;;;;;;;3.42;1.23;;;;;;;;;;10263747;28;20055;-87
2023/10/03 18:19:14;;;;;;;1.55;0.90;;;;;;;;;;10266913;28;20117;-87
2023/10/03 18:24:19;;;;;;;1.73;1.00;;;;;;;;;;10261020;28;20474;-87
2023/10/03 18:29:24;;;;;;;2.08;0.90;;;;;;;;;;10259572;28;20066;-86
2023/10/03 18:34:29;;;;;;;1.55;0.98;;;;;;;;;;10278056;28;20098;-87
2023/10/03 18:39:34;;;;;;;1.27;0.90;;;;;;;;;;10281552;28;20142;-86
2023/10/03 18:44:38;;;;;;;1.85;1.10;;;;;;;;;;10259029;28;20748;-87
2023/10/03 18:49:42;;;;;;;1.20;0.80;;;;;;;;;;10259231;28;20137;-86
2023/10/03 18:54:45;;;;;;;2.63;0.82;;;;;;;;;;10260849;28;20066;-87
2023/10/03 18:59:50;;;;;;;1.17;0.95;;;;;;;;;;10260642;28;20070;-87
2023/10/03 19:04:54;;;;;;;1.27;0.90;;;;;;;;;;10277716;28;20042;-87
2023/10/03 19:09:57;;;;;;;1.40;0.90;;;;;;;;;;10263525;28;20117;-87
2023/10/03 19:15:04;;;;;;;1.55;1.10;;;;;;;;;;10258833;28;20115;-87
2023/10/03 19:20:10;;;;;;;1.90;1.20;;;;;;;;;;10259065;28;20059;-87
2023/10/03 19:25:16;;;;;;;2.17;0.80;;;;;;;;;;10256615;28;20595;-87
2023/10/03 19:30:21;;;;;;;1.92;0.93;;;;;;;;;;10256933;28;20053;-87
2023/10/03 19:35:25;;;;;;;1.23;0.85;;;;;;;;;;10259210;28;20055;-86
2023/10/03 19:40:31;;;;;;;2.97;1.15;;;;;;;;;;10291592;22;20029;-77
2023/10/03 19:45:38;;;;;;;2.08;1.23;;;;;;;;;;10291456;28;20109;-77
2023/10/03 19:50:42;;;;;;;1.73;0.93;;;;;;;;;;10325524;28;20073;-77
2023/10/03 19:55:45;;;;;;;3.78;1.60;;;;;;;;;;10321102;28;20043;-77
2023/10/03 20:00:50;;;;;;;2.80;1.65;;;;;;;;;;10324229;28;20048;-77
2023/10/03 20:05:53;;;;;;;1.50;1.20;;;;;;;;;;10324799;28;20046;-76
2023/10/03 20:10:57;;;;;;;3.60;1.50;;;;;;;;;;10329657;28;20027;-77
2023/10/03 20:16:01;;;;;;;2.13;1.15;;;;;;;;;;10324544;28;20047;-77
2023/10/03 20:21:05;;;;;;;2.60;1.15;;;;;;;;;;10323841;28;20046;-77
2023/10/03 20:26:08;;;;;;;1.73;1.13;;;;;;;;;;10323959;28;20046;-77
2023/10/03 20:31:14;;;;;;;2.13;1.20;;;;;;;;;;10317932;28;20046;-77
2023/10/03 20:36:17;;;;;;;1.35;0.90;;;;;;;;;;10324590;28;20050;-77
2023/10/03 20:41:24;;;;;;;1.70;1.20;;;;;;;;;;10329548;28;20046;-78
2023/10/03 20:46:29;;;;;;;1.67;1.10;;;;;;;;;;10331473;28;20546;-77
2023/10/03 20:51:32;;;;;;;2.03;1.23;;;;;;;;;;10331800;28;20054;-77
2023/10/03 20:56:35;;;;;;;1.70;1.13;;;;;;;;;;10326019;28;20109;-77
2023/10/03 21:01:41;;;;;;;2.22;1.30;;;;;;;;;;10317143;28;20046;-77
2023/10/03 21:06:46;;;;;;;2.67;1.20;;;;;;;;;;10313465;28;20480;-77
2023/10/03 21:11:50;;;;;;;2.00;1.40;;;;;;;;;;10330377;28;20129;-77
2023/10/03 21:16:54;;;;;;;2.50;1.58;;;;;;;;;;10330351;28;20050;-77
2023/10/03 21:21:58;;;;;;;3.92;1.35;;;;;;;;;;10333881;28;20042;-77
2023/10/03 21:27:01;;;;;;;3.20;1.60;;;;;;;;;;10330130;28;20657;-77
2023/10/03 21:32:06;;;;;;;3.58;2.10;;;;;;;;;;10328534;28;20050;-77
2023/10/03 21:37:09;;;;;;;4.63;2.00;;;;;;;;;;10330081;28;20039;-77
2023/10/03 21:42:12;;;;;;;4.15;1.85;;;;;;;;;;10329443;28;20058;-77
2023/10/03 21:47:17;;;;;;;2.35;1.45;;;;;;;;;;10330363;28;20042;-77
2023/10/03 21:52:20;;;;;;;1.85;1.10;;;;;;;;;;10330014;28;20053;-77
2023/10/03 21:57:23;;;;;;;3.17;1.67;;;;;;;;;;10315121;28;20046;-77
2023/10/03 22:02:29;;;;;;;2.58;1.60;;;;;;;;;;10328519;28;20062;-77
2023/10/03 22:07:32;;;;;;;1.75;1.25;;;;;;;;;;10329432;28;20526;-77
2023/10/03 22:12:36;;;;;;;1.88;1.30;;;;;;;;;;10309222;28;20057;-77
2023/10/03 22:17:41;;;;;;;2.75;1.65;;;;;;;;;;10321667;28;20068;-77
2023/10/03 22:22:44;;;;;;;2.72;1.48;;;;;;;;;;10320879;28;20042;-77
2023/10/03 22:27:48;;;;;;;2.58;1.48;;;;;;;;;;10307824;28;20043;-77
2023/10/03 22:32:52;;;;;;;1.90;1.40;;;;;;;;;;10333483;28;20529;-77
2023/10/03 22:37:56;;;;;;;2.15;1.38;;;;;;;;;;10332467;28;20073;-78
2023/10/03 22:43:07;;;;;;;3.63;1.90;;;;;;;;;;10332909;28;20100;-77
2023/10/03 22:48:12;;;;;;;3.55;1.42;;;;;;;;;;10309246;28;20133;-77
2023/10/03 22:53:16;;;;;;;2.38;1.38;;;;;;;;;;10305052;28;20149;-77
2023/10/03 22:58:19;;;;;;;2.97;1.63;;;;;;;;;;10325460;28;20515;-77
2023/10/03 23:03:25;;;;;;;2.33;1.60;;;;;;;;;;10325849;28;20042;-77
2023/10/03 23:08:28;;;;;;;2.63;1.40;;;;;;;;;;10327253;28;20054;-77
2023/10/03 23:13:31;;;;;;;3.50;1.50;;;;;;;;;;10326447;28;20054;-78
2023/10/03 23:18:36;;;;;;;2.88;1.13;;;;;;;;;;10325847;28;20046;-78
2023/10/03 23:23:40;;;;;;;2.42;1.58;;;;;;;;;;10324108;28;20547;-77
2023/10/03 23:28:44;;;;;;;2.67;1.50;;;;;;;;;;10327487;28;20052;-77
2023/10/03 23:33:50;;;;;;;2.13;1.40;;;;;;;;;;10334714;28;20513;-77
2023/10/03 23:38:53;;;;;;;2.83;1.42;;;;;;;;;;10309060;28;20051;-77
2023/10/03 23:43:56;;;;;;;2.67;1.40;;;;;;;;;;10326171;28;20416;-77
2023/10/03 23:49:04;;;;;;;1.73;1.20;;;;;;;;;;10324955;28;20048;-77
2023/10/03 23:54:10;;;;;;;4.28;1.50;;;;;;;;;;10322308;28;20586;-77
2023/10/03 23:59:14;;;;;;;4.07;1.20;;;;;;;;;;10325814;28;20069;-77
